Terminal Aerodrome Forecast
Issued by NWS Spokane, WA

Home | Current Version | Previous Version | Text Only | Print | Product List | Glossary On
Versions: 1 2 3 4 5 6 7 8 9 10 11 12
000
FTUS46 KOTX 180533
TAFLWS
TAF
KLWS 180533Z 1806/1906 17005KT P6SM SKC
     FM182100 32009G15KT P6SM FEW200
     FM190300 30007KT P6SM SCT200=

USA.gov is the U.S. government's official web portal to all federal, state and local government web resources and services.